sensor_id;sensor_type;location;lat;lon;timestamp;P1;durP1;ratioP1;P2;durP2;ratioP2
68583;SDS011;55557;49.220;11.150;2023-05-18T00:02:14;7.30;;;3.67;;
68583;SDS011;55557;49.220;11.150;2023-05-18T00:04:40;5.83;;;3.63;;
68583;SDS011;55557;49.220;11.150;2023-05-18T00:07:07;5.10;;;3.60;;
68583;SDS011;55557;49.220;11.150;2023-05-18T00:09:34;11.13;;;3.53;;
68583;SDS011;55557;49.220;11.150;2023-05-18T00:12:00;4.57;;;3.20;;
68583;SDS011;55557;49.220;11.150;2023-05-18T00:14:26;7.63;;;4.40;;
68583;SDS011;55557;49.220;11.150;2023-05-18T00:16:53;5.97;;;3.83;;
68583;SDS011;55557;49.220;11.150;2023-05-18T00:19:20;6.50;;;3.60;;
68583;SDS011;55557;49.220;11.150;2023-05-18T00:21:48;6.10;;;3.70;;
68583;SDS011;55557;49.220;11.150;2023-05-18T00:24:14;6.17;;;3.87;;
68583;SDS011;55557;49.220;11.150;2023-05-18T00:26:41;6.60;;;4.40;;
68583;SDS011;55557;49.220;11.150;2023-05-18T00:29:07;5.30;;;4.20;;
68583;SDS011;55557;49.220;11.150;2023-05-18T00:31:34;8.47;;;5.37;;
68583;SDS011;55557;49.220;11.150;2023-05-18T00:34:09;7.93;;;4.60;;
68583;SDS011;55557;49.220;11.150;2023-05-18T00:36:36;7.77;;;4.07;;
68583;SDS011;55557;49.220;11.150;2023-05-18T00:39:03;6.03;;;3.70;;
68583;SDS011;55557;49.220;11.150;2023-05-18T00:41:29;6.60;;;3.50;;
68583;SDS011;55557;49.220;11.150;2023-05-18T00:43:55;6.27;;;3.57;;
68583;SDS011;55557;49.220;11.150;2023-05-18T00:46:22;9.53;;;4.13;;
68583;SDS011;55557;49.220;11.150;2023-05-18T00:48:48;10.63;;;3.83;;
68583;SDS011;55557;49.220;11.150;2023-05-18T00:51:15;5.43;;;4.43;;
68583;SDS011;55557;49.220;11.150;2023-05-18T00:53:41;9.53;;;4.23;;
68583;SDS011;55557;49.220;11.150;2023-05-18T00:56:08;6.83;;;4.37;;
68583;SDS011;55557;49.220;11.150;2023-05-18T00:58:35;6.97;;;3.77;;
68583;SDS011;55557;49.220;11.150;2023-05-18T01:01:01;8.43;;;3.67;;
68583;SDS011;55557;49.220;11.150;2023-05-18T01:03:29;4.63;;;3.70;;
68583;SDS011;55557;49.220;11.150;2023-05-18T01:05:57;4.70;;;3.83;;
68583;SDS011;55557;49.220;11.150;2023-05-18T01:08:23;6.53;;;3.97;;
68583;SDS011;55557;49.220;11.150;2023-05-18T01:10:54;5.50;;;3.63;;
68583;SDS011;55557;49.220;11.150;2023-05-18T01:13:26;5.57;;;3.53;;
68583;SDS011;55557;49.220;11.150;2023-05-18T01:15:56;6.13;;;4.10;;
68583;SDS011;55557;49.220;11.150;2023-05-18T01:18:33;6.83;;;4.30;;
68583;SDS011;55557;49.220;11.150;2023-05-18T01:21:17;3.93;;;3.20;;
68583;SDS011;55557;49.220;11.150;2023-05-18T01:26:22;5.17;;;3.47;;
68583;SDS011;55557;49.220;11.150;2023-05-18T01:28:49;4.87;;;3.60;;
68583;SDS011;55557;49.220;11.150;2023-05-18T01:31:15;6.00;;;3.37;;
68583;SDS011;55557;49.220;11.150;2023-05-18T01:33:41;4.63;;;3.20;;
68583;SDS011;55557;49.220;11.150;2023-05-18T01:36:08;5.83;;;3.63;;
68583;SDS011;55557;49.220;11.150;2023-05-18T01:38:34;5.70;;;3.53;;
68583;SDS011;55557;49.220;11.150;2023-05-18T01:41:10;7.47;;;3.60;;
68583;SDS011;55557;49.220;11.150;2023-05-18T01:43:41;5.03;;;3.33;;
68583;SDS011;55557;49.220;11.150;2023-05-18T01:48:39;6.90;;;3.43;;
68583;SDS011;55557;49.220;11.150;2023-05-18T01:51:07;5.03;;;3.53;;
68583;SDS011;55557;49.220;11.150;2023-05-18T01:53:41;7.63;;;3.53;;
68583;SDS011;55557;49.220;11.150;2023-05-18T01:56:08;3.60;;;2.80;;
68583;SDS011;55557;49.220;11.150;2023-05-18T01:58:36;8.43;;;3.97;;
68583;SDS011;55557;49.220;11.150;2023-05-18T02:01:02;6.93;;;4.10;;
68583;SDS011;55557;49.220;11.150;2023-05-18T02:03:32;5.77;;;3.47;;
68583;SDS011;55557;49.220;11.150;2023-05-18T02:05:58;7.17;;;3.27;;
68583;SDS011;55557;49.220;11.150;2023-05-18T02:08:24;4.87;;;3.17;;
68583;SDS011;55557;49.220;11.150;2023-05-18T02:10:50;5.63;;;3.13;;
68583;SDS011;55557;49.220;11.150;2023-05-18T02:13:16;5.57;;;3.10;;
68583;SDS011;55557;49.220;11.150;2023-05-18T02:15:42;5.43;;;3.27;;
68583;SDS011;55557;49.220;11.150;2023-05-18T02:18:08;5.03;;;2.93;;
68583;SDS011;55557;49.220;11.150;2023-05-18T02:20:34;4.03;;;2.90;;
68583;SDS011;55557;49.220;11.150;2023-05-18T02:23:02;5.70;;;3.23;;
68583;SDS011;55557;49.220;11.150;2023-05-18T02:25:28;5.93;;;3.60;;
68583;SDS011;55557;49.220;11.150;2023-05-18T02:27:54;4.90;;;3.00;;
68583;SDS011;55557;49.220;11.150;2023-05-18T02:30:20;6.87;;;3.50;;
68583;SDS011;55557;49.220;11.150;2023-05-18T02:32:46;8.47;;;3.00;;
68583;SDS011;55557;49.220;11.150;2023-05-18T02:35:13;10.30;;;3.90;;
68583;SDS011;55557;49.220;11.150;2023-05-18T02:37:40;6.77;;;3.13;;
68583;SDS011;55557;49.220;11.150;2023-05-18T02:40:11;6.73;;;3.03;;
68583;SDS011;55557;49.220;11.150;2023-05-18T02:42:39;5.27;;;3.70;;
68583;SDS011;55557;49.220;11.150;2023-05-18T02:45:06;7.17;;;3.10;;
68583;SDS011;55557;49.220;11.150;2023-05-18T02:47:32;6.30;;;2.87;;
68583;SDS011;55557;49.220;11.150;2023-05-18T02:49:58;6.20;;;3.70;;
68583;SDS011;55557;49.220;11.150;2023-05-18T02:52:24;4.37;;;3.63;;
68583;SDS011;55557;49.220;11.150;2023-05-18T02:54:51;7.67;;;3.20;;
68583;SDS011;55557;49.220;11.150;2023-05-18T02:57:18;5.70;;;3.53;;
68583;SDS011;55557;49.220;11.150;2023-05-18T02:59:45;6.57;;;3.20;;
68583;SDS011;55557;49.220;11.150;2023-05-18T03:02:11;7.67;;;3.30;;
68583;SDS011;55557;49.220;11.150;2023-05-18T03:04:38;5.90;;;4.00;;
68583;SDS011;55557;49.220;11.150;2023-05-18T03:07:04;8.07;;;2.93;;
68583;SDS011;55557;49.220;11.150;2023-05-18T03:09:32;4.63;;;3.27;;
68583;SDS011;55557;49.220;11.150;2023-05-18T03:11:58;6.97;;;3.20;;
68583;SDS011;55557;49.220;11.150;2023-05-18T03:14:25;4.60;;;3.20;;
68583;SDS011;55557;49.220;11.150;2023-05-18T03:16:51;5.77;;;3.50;;
68583;SDS011;55557;49.220;11.150;2023-05-18T03:19:18;4.63;;;3.20;;
68583;SDS011;55557;49.220;11.150;2023-05-18T03:21:44;3.77;;;3.03;;
68583;SDS011;55557;49.220;11.150;2023-05-18T03:24:15;5.97;;;3.57;;
68583;SDS011;55557;49.220;11.150;2023-05-18T03:26:41;7.40;;;3.80;;
68583;SDS011;55557;49.220;11.150;2023-05-18T03:29:08;5.20;;;3.13;;
68583;SDS011;55557;49.220;11.150;2023-05-18T03:31:37;4.97;;;3.20;;
68583;SDS011;55557;49.220;11.150;2023-05-18T03:34:03;5.97;;;3.07;;
68583;SDS011;55557;49.220;11.150;2023-05-18T03:36:30;5.03;;;3.40;;
68583;SDS011;55557;49.220;11.150;2023-05-18T03:38:56;5.03;;;3.60;;
68583;SDS011;55557;49.220;11.150;2023-05-18T03:41:22;4.77;;;3.37;;
68583;SDS011;55557;49.220;11.150;2023-05-18T03:43:48;6.63;;;3.60;;
68583;SDS011;55557;49.220;11.150;2023-05-18T03:46:14;14.37;;;3.97;;
68583;SDS011;55557;49.220;11.150;2023-05-18T03:48:40;8.33;;;3.67;;
68583;SDS011;55557;49.220;11.150;2023-05-18T03:51:06;5.67;;;3.27;;
68583;SDS011;55557;49.220;11.150;2023-05-18T03:53:32;5.43;;;3.23;;
68583;SDS011;55557;49.220;11.150;2023-05-18T03:56:00;6.27;;;3.17;;
68583;SDS011;55557;49.220;11.150;2023-05-18T03:58:26;3.93;;;3.37;;
68583;SDS011;55557;49.220;11.150;2023-05-18T04:00:53;8.00;;;4.13;;
68583;SDS011;55557;49.220;11.150;2023-05-18T04:03:19;6.17;;;3.67;;
68583;SDS011;55557;49.220;11.150;2023-05-18T04:05:45;4.30;;;2.87;;
68583;SDS011;55557;49.220;11.150;2023-05-18T04:08:11;8.63;;;3.57;;
68583;SDS011;55557;49.220;11.150;2023-05-18T04:10:38;3.30;;;2.67;;
68583;SDS011;55557;49.220;11.150;2023-05-18T04:13:04;4.50;;;3.43;;
68583;SDS011;55557;49.220;11.150;2023-05-18T04:15:30;4.27;;;3.50;;
68583;SDS011;55557;49.220;11.150;2023-05-18T04:17:57;5.00;;;3.60;;
68583;SDS011;55557;49.220;11.150;2023-05-18T04:20:23;7.30;;;3.60;;
68583;SDS011;55557;49.220;11.150;2023-05-18T04:22:52;4.77;;;3.60;;
68583;SDS011;55557;49.220;11.150;2023-05-18T04:25:19;9.57;;;5.30;;
68583;SDS011;55557;49.220;11.150;2023-05-18T04:27:45;7.27;;;4.57;;
68583;SDS011;55557;49.220;11.150;2023-05-18T04:30:12;12.30;;;4.77;;
68583;SDS011;55557;49.220;11.150;2023-05-18T04:32:38;6.03;;;4.17;;
68583;SDS011;55557;49.220;11.150;2023-05-18T04:35:07;5.67;;;3.60;;
68583;SDS011;55557;49.220;11.150;2023-05-18T04:37:33;6.27;;;3.83;;
68583;SDS011;55557;49.220;11.150;2023-05-18T04:40:00;4.17;;;3.77;;
68583;SDS011;55557;49.220;11.150;2023-05-18T04:42:30;4.20;;;2.97;;
68583;SDS011;55557;49.220;11.150;2023-05-18T04:44:56;8.40;;;3.77;;
68583;SDS011;55557;49.220;11.150;2023-05-18T04:47:22;5.10;;;3.67;;
68583;SDS011;55557;49.220;11.150;2023-05-18T04:49:49;4.53;;;3.33;;
68583;SDS011;55557;49.220;11.150;2023-05-18T04:52:18;5.37;;;4.87;;
68583;SDS011;55557;49.220;11.150;2023-05-18T04:54:44;6.53;;;3.50;;
68583;SDS011;55557;49.220;11.150;2023-05-18T04:57:10;4.27;;;3.50;;
68583;SDS011;55557;49.220;11.150;2023-05-18T04:59:37;13.43;;;3.70;;
68583;SDS011;55557;49.220;11.150;2023-05-18T05:02:03;8.70;;;3.93;;
68583;SDS011;55557;49.220;11.150;2023-05-18T05:04:29;8.23;;;3.80;;
68583;SDS011;55557;49.220;11.150;2023-05-18T05:06:55;6.37;;;2.80;;
68583;SDS011;55557;49.220;11.150;2023-05-18T05:09:21;4.60;;;3.20;;
68583;SDS011;55557;49.220;11.150;2023-05-18T05:11:47;6.93;;;4.33;;
68583;SDS011;55557;49.220;11.150;2023-05-18T05:14:13;8.00;;;3.63;;
68583;SDS011;55557;49.220;11.150;2023-05-18T05:16:39;5.60;;;4.43;;
68583;SDS011;55557;49.220;11.150;2023-05-18T05:19:05;8.13;;;4.50;;
68583;SDS011;55557;49.220;11.150;2023-05-18T05:21:32;9.00;;;5.57;;
68583;SDS011;55557;49.220;11.150;2023-05-18T05:23:58;7.40;;;4.60;;
68583;SDS011;55557;49.220;11.150;2023-05-18T05:26:28;5.80;;;4.50;;
68583;SDS011;55557;49.220;11.150;2023-05-18T05:28:54;7.17;;;4.00;;
68583;SDS011;55557;49.220;11.150;2023-05-18T05:31:20;7.40;;;3.77;;
68583;SDS011;55557;49.220;11.150;2023-05-18T05:33:46;4.73;;;3.20;;
68583;SDS011;55557;49.220;11.150;2023-05-18T05:36:13;6.80;;;4.60;;
68583;SDS011;55557;49.220;11.150;2023-05-18T05:38:39;9.00;;;4.50;;
68583;SDS011;55557;49.220;11.150;2023-05-18T05:41:06;7.50;;;3.83;;
68583;SDS011;55557;49.220;11.150;2023-05-18T05:43:32;7.43;;;3.73;;
68583;SDS011;55557;49.220;11.150;2023-05-18T05:45:58;5.77;;;3.30;;
68583;SDS011;55557;49.220;11.150;2023-05-18T05:48:24;6.57;;;3.50;;
68583;SDS011;55557;49.220;11.150;2023-05-18T05:50:50;11.23;;;4.17;;
68583;SDS011;55557;49.220;11.150;2023-05-18T05:53:17;6.07;;;3.43;;
68583;SDS011;55557;49.220;11.150;2023-05-18T05:55:43;7.77;;;3.73;;
68583;SDS011;55557;49.220;11.150;2023-05-18T05:58:10;5.40;;;3.50;;
68583;SDS011;55557;49.220;11.150;2023-05-18T06:00:36;10.77;;;3.47;;
68583;SDS011;55557;49.220;11.150;2023-05-18T06:03:02;5.63;;;3.93;;
68583;SDS011;55557;49.220;11.150;2023-05-18T06:05:28;6.63;;;3.60;;
68583;SDS011;55557;49.220;11.150;2023-05-18T06:07:55;6.67;;;3.40;;
68583;SDS011;55557;49.220;11.150;2023-05-18T06:10:21;7.73;;;4.10;;
68583;SDS011;55557;49.220;11.150;2023-05-18T06:12:47;8.43;;;3.40;;
68583;SDS011;55557;49.220;11.150;2023-05-18T06:15:13;6.30;;;3.23;;
68583;SDS011;55557;49.220;11.150;2023-05-18T06:17:40;9.87;;;3.50;;
68583;SDS011;55557;49.220;11.150;2023-05-18T06:20:08;7.27;;;3.30;;
68583;SDS011;55557;49.220;11.150;2023-05-18T06:22:35;8.68;;;4.20;;
68583;SDS011;55557;49.220;11.150;2023-05-18T06:25:01;5.17;;;2.60;;
68583;SDS011;55557;49.220;11.150;2023-05-18T06:27:28;9.10;;;3.00;;
68583;SDS011;55557;49.220;11.150;2023-05-18T06:29:54;6.37;;;3.43;;
68583;SDS011;55557;49.220;11.150;2023-05-18T06:32:20;8.40;;;2.90;;
68583;SDS011;55557;49.220;11.150;2023-05-18T06:34:46;9.77;;;3.10;;
68583;SDS011;55557;49.220;11.150;2023-05-18T06:39:47;7.53;;;3.60;;
68583;SDS011;55557;49.220;11.150;2023-05-18T06:42:13;10.00;;;3.20;;
68583;SDS011;55557;49.220;11.150;2023-05-18T06:44:39;7.77;;;2.73;;
68583;SDS011;55557;49.220;11.150;2023-05-18T06:47:05;12.90;;;3.40;;
68583;SDS011;55557;49.220;11.150;2023-05-18T06:49:32;7.73;;;2.90;;
68583;SDS011;55557;49.220;11.150;2023-05-18T06:51:58;4.63;;;2.80;;
68583;SDS011;55557;49.220;11.150;2023-05-18T06:54:24;5.53;;;2.20;;
68583;SDS011;55557;49.220;11.150;2023-05-18T06:56:53;13.53;;;3.20;;
68583;SDS011;55557;49.220;11.150;2023-05-18T06:59:19;7.43;;;2.80;;
68583;SDS011;55557;49.220;11.150;2023-05-18T07:01:46;11.27;;;3.03;;
68583;SDS011;55557;49.220;11.150;2023-05-18T07:04:12;8.23;;;3.30;;
68583;SDS011;55557;49.220;11.150;2023-05-18T07:06:39;6.27;;;2.63;;
68583;SDS011;55557;49.220;11.150;2023-05-18T07:09:06;6.93;;;3.37;;
68583;SDS011;55557;49.220;11.150;2023-05-18T07:11:32;15.37;;;2.93;;
68583;SDS011;55557;49.220;11.150;2023-05-18T07:13:58;7.87;;;2.93;;
68583;SDS011;55557;49.220;11.150;2023-05-18T07:16:25;8.37;;;3.17;;
68583;SDS011;55557;49.220;11.150;2023-05-18T07:18:52;7.83;;;2.73;;
68583;SDS011;55557;49.220;11.150;2023-05-18T07:21:18;15.27;;;3.57;;
68583;SDS011;55557;49.220;11.150;2023-05-18T07:23:44;8.33;;;2.93;;
68583;SDS011;55557;49.220;11.150;2023-05-18T07:26:10;9.03;;;2.83;;
68583;SDS011;55557;49.220;11.150;2023-05-18T07:28:36;11.07;;;2.97;;
68583;SDS011;55557;49.220;11.150;2023-05-18T07:31:03;8.07;;;2.80;;
68583;SDS011;55557;49.220;11.150;2023-05-18T07:33:30;9.57;;;2.90;;
68583;SDS011;55557;49.220;11.150;2023-05-18T07:35:56;6.35;;;2.75;;
68583;SDS011;55557;49.220;11.150;2023-05-18T07:38:22;6.63;;;2.43;;
68583;SDS011;55557;49.220;11.150;2023-05-18T07:40:48;7.77;;;2.10;;
68583;SDS011;55557;49.220;11.150;2023-05-18T07:43:14;5.60;;;2.20;;
68583;SDS011;55557;49.220;11.150;2023-05-18T07:45:40;11.77;;;3.53;;
68583;SDS011;55557;49.220;11.150;2023-05-18T07:48:06;7.67;;;2.37;;
68583;SDS011;55557;49.220;11.150;2023-05-18T07:50:32;13.87;;;2.67;;
68583;SDS011;55557;49.220;11.150;2023-05-18T07:53:00;10.20;;;2.43;;
68583;SDS011;55557;49.220;11.150;2023-05-18T07:55:26;7.03;;;2.37;;
68583;SDS011;55557;49.220;11.150;2023-05-18T07:57:52;7.37;;;2.73;;
68583;SDS011;55557;49.220;11.150;2023-05-18T08:00:19;5.97;;;2.40;;
68583;SDS011;55557;49.220;11.150;2023-05-18T08:02:45;9.60;;;2.80;;
68583;SDS011;55557;49.220;11.150;2023-05-18T08:05:11;12.07;;;2.93;;
68583;SDS011;55557;49.220;11.150;2023-05-18T08:07:37;4.57;;;1.87;;
68583;SDS011;55557;49.220;11.150;2023-05-18T08:10:03;8.73;;;2.63;;
68583;SDS011;55557;49.220;11.150;2023-05-18T08:12:30;7.40;;;2.30;;
68583;SDS011;55557;49.220;11.150;2023-05-18T08:14:58;5.47;;;2.07;;
68583;SDS011;55557;49.220;11.150;2023-05-18T08:17:24;8.60;;;2.53;;
68583;SDS011;55557;49.220;11.150;2023-05-18T08:19:50;17.70;;;2.67;;
68583;SDS011;55557;49.220;11.150;2023-05-18T08:22:17;6.77;;;2.07;;
68583;SDS011;55557;49.220;11.150;2023-05-18T08:24:43;9.77;;;1.97;;
68583;SDS011;55557;49.220;11.150;2023-05-18T08:27:10;8.60;;;2.47;;
68583;SDS011;55557;49.220;11.150;2023-05-18T08:29:36;11.63;;;3.43;;
68583;SDS011;55557;49.220;11.150;2023-05-18T08:32:03;11.43;;;2.60;;
68583;SDS011;55557;49.220;11.150;2023-05-18T08:34:29;6.13;;;2.60;;
68583;SDS011;55557;49.220;11.150;2023-05-18T08:36:55;4.90;;;1.90;;
68583;SDS011;55557;49.220;11.150;2023-05-18T08:39:21;3.97;;;1.83;;
68583;SDS011;55557;49.220;11.150;2023-05-18T08:42:01;8.03;;;2.00;;
68583;SDS011;55557;49.220;11.150;2023-05-18T08:44:43;7.00;;;2.10;;
68583;SDS011;55557;49.220;11.150;2023-05-18T08:47:11;5.30;;;2.00;;
68583;SDS011;55557;49.220;11.150;2023-05-18T08:49:39;6.77;;;2.37;;
68583;SDS011;55557;49.220;11.150;2023-05-18T08:52:06;7.23;;;2.70;;
68583;SDS011;55557;49.220;11.150;2023-05-18T08:54:34;8.33;;;1.90;;
68583;SDS011;55557;49.220;11.150;2023-05-18T08:57:00;7.83;;;2.17;;
68583;SDS011;55557;49.220;11.150;2023-05-18T08:59:29;6.97;;;1.77;;
68583;SDS011;55557;49.220;11.150;2023-05-18T09:01:56;6.70;;;2.37;;
68583;SDS011;55557;49.220;11.150;2023-05-18T09:04:22;11.37;;;2.60;;
68583;SDS011;55557;49.220;11.150;2023-05-18T09:06:48;9.70;;;2.33;;
68583;SDS011;55557;49.220;11.150;2023-05-18T09:09:16;6.73;;;1.93;;
68583;SDS011;55557;49.220;11.150;2023-05-18T09:11:42;6.80;;;2.40;;
68583;SDS011;55557;49.220;11.150;2023-05-18T09:14:15;5.27;;;1.80;;
68583;SDS011;55557;49.220;11.150;2023-05-18T09:16:41;9.00;;;2.03;;
68583;SDS011;55557;49.220;11.150;2023-05-18T09:19:07;7.10;;;1.77;;
68583;SDS011;55557;49.220;11.150;2023-05-18T09:21:34;5.90;;;1.70;;
68583;SDS011;55557;49.220;11.150;2023-05-18T09:24:00;7.87;;;2.23;;
68583;SDS011;55557;49.220;11.150;2023-05-18T09:26:26;8.93;;;2.03;;
68583;SDS011;55557;49.220;11.150;2023-05-18T09:28:52;6.23;;;2.23;;
68583;SDS011;55557;49.220;11.150;2023-05-18T09:31:20;5.77;;;2.00;;
68583;SDS011;55557;49.220;11.150;2023-05-18T09:33:51;9.33;;;2.13;;
68583;SDS011;55557;49.220;11.150;2023-05-18T09:36:22;3.87;;;1.73;;
68583;SDS011;55557;49.220;11.150;2023-05-18T09:38:48;5.47;;;2.03;;
68583;SDS011;55557;49.220;11.150;2023-05-18T09:41:16;4.47;;;1.43;;
68583;SDS011;55557;49.220;11.150;2023-05-18T09:43:43;10.63;;;2.97;;
68583;SDS011;55557;49.220;11.150;2023-05-18T09:46:10;6.33;;;1.90;;
68583;SDS011;55557;49.220;11.150;2023-05-18T09:48:45;9.10;;;2.00;;
68583;SDS011;55557;49.220;11.150;2023-05-18T09:51:12;5.70;;;1.97;;
68583;SDS011;55557;49.220;11.150;2023-05-18T09:53:41;3.83;;;1.97;;
68583;SDS011;55557;49.220;11.150;2023-05-18T09:56:07;6.77;;;1.80;;
68583;SDS011;55557;49.220;11.150;2023-05-18T09:58:39;5.27;;;1.90;;
68583;SDS011;55557;49.220;11.150;2023-05-18T10:01:06;9.23;;;2.30;;
68583;SDS011;55557;49.220;11.150;2023-05-18T10:03:36;5.23;;;1.70;;
68583;SDS011;55557;49.220;11.150;2023-05-18T10:06:06;5.77;;;1.60;;
68583;SDS011;55557;49.220;11.150;2023-05-18T10:08:34;6.17;;;1.97;;
68583;SDS011;55557;49.220;11.150;2023-05-18T10:11:00;4.10;;;1.60;;
68583;SDS011;55557;49.220;11.150;2023-05-18T10:13:27;6.73;;;2.27;;
68583;SDS011;55557;49.220;11.150;2023-05-18T10:15:56;4.93;;;2.20;;
68583;SDS011;55557;49.220;11.150;2023-05-18T10:18:25;6.10;;;1.87;;
68583;SDS011;55557;49.220;11.150;2023-05-18T10:20:54;8.90;;;2.20;;
68583;SDS011;55557;49.220;11.150;2023-05-18T10:23:21;10.90;;;2.27;;
68583;SDS011;55557;49.220;11.150;2023-05-18T10:25:48;6.77;;;1.60;;
68583;SDS011;55557;49.220;11.150;2023-05-18T10:28:21;6.17;;;2.13;;
68583;SDS011;55557;49.220;11.150;2023-05-18T10:30:55;12.20;;;2.23;;
68583;SDS011;55557;49.220;11.150;2023-05-18T10:33:22;6.47;;;2.40;;
68583;SDS011;55557;49.220;11.150;2023-05-18T10:35:49;6.87;;;2.00;;
68583;SDS011;55557;49.220;11.150;2023-05-18T10:38:19;9.57;;;2.20;;
68583;SDS011;55557;49.220;11.150;2023-05-18T10:40:45;8.27;;;1.73;;
68583;SDS011;55557;49.220;11.150;2023-05-18T10:43:12;6.87;;;1.93;;
68583;SDS011;55557;49.220;11.150;2023-05-18T10:45:40;5.37;;;1.93;;
68583;SDS011;55557;49.220;11.150;2023-05-18T10:48:06;6.03;;;2.00;;
68583;SDS011;55557;49.220;11.150;2023-05-18T10:50:34;7.43;;;1.70;;
68583;SDS011;55557;49.220;11.150;2023-05-18T10:53:00;5.93;;;2.07;;
68583;SDS011;55557;49.220;11.150;2023-05-18T10:55:26;6.37;;;2.10;;
68583;SDS011;55557;49.220;11.150;2023-05-18T10:57:55;4.23;;;1.60;;
68583;SDS011;55557;49.220;11.150;2023-05-18T11:00:21;7.70;;;1.97;;
68583;SDS011;55557;49.220;11.150;2023-05-18T11:02:47;8.20;;;2.70;;
68583;SDS011;55557;49.220;11.150;2023-05-18T11:05:14;3.57;;;2.30;;
68583;SDS011;55557;49.220;11.150;2023-05-18T11:07:50;2.67;;;1.63;;
68583;SDS011;55557;49.220;11.150;2023-05-18T11:10:24;8.33;;;2.40;;
68583;SDS011;55557;49.220;11.150;2023-05-18T11:12:59;6.33;;;1.73;;
68583;SDS011;55557;49.220;11.150;2023-05-18T11:18:13;8.00;;;1.87;;
68583;SDS011;55557;49.220;11.150;2023-05-18T11:20:40;9.23;;;2.30;;
68583;SDS011;55557;49.220;11.150;2023-05-18T11:23:05;12.90;;;2.17;;
68583;SDS011;55557;49.220;11.150;2023-05-18T11:27:59;9.27;;;2.30;;
68583;SDS011;55557;49.220;11.150;2023-05-18T11:32:52;8.97;;;2.03;;
68583;SDS011;55557;49.220;11.150;2023-05-18T11:35:24;5.17;;;2.07;;
68583;SDS011;55557;49.220;11.150;2023-05-18T11:37:50;7.20;;;1.80;;
68583;SDS011;55557;49.220;11.150;2023-05-18T11:43:01;2.23;;;1.13;;
68583;SDS011;55557;49.220;11.150;2023-05-18T11:45:27;6.50;;;2.00;;
68583;SDS011;55557;49.220;11.150;2023-05-18T11:47:55;6.40;;;1.70;;
68583;SDS011;55557;49.220;11.150;2023-05-18T11:50:21;5.03;;;1.90;;
68583;SDS011;55557;49.220;11.150;2023-05-18T11:52:50;16.90;;;2.00;;
68583;SDS011;55557;49.220;11.150;2023-05-18T11:55:17;5.80;;;1.60;;
68583;SDS011;55557;49.220;11.150;2023-05-18T11:57:45;4.87;;;1.60;;
68583;SDS011;55557;49.220;11.150;2023-05-18T12:00:12;4.00;;;1.60;;
68583;SDS011;55557;49.220;11.150;2023-05-18T12:02:42;4.30;;;1.93;;
68583;SDS011;55557;49.220;11.150;2023-05-18T12:05:08;7.83;;;2.30;;
68583;SDS011;55557;49.220;11.150;2023-05-18T12:07:35;5.43;;;1.53;;
68583;SDS011;55557;49.220;11.150;2023-05-18T12:10:02;6.00;;;2.03;;
68583;SDS011;55557;49.220;11.150;2023-05-18T12:12:28;6.43;;;2.13;;
68583;SDS011;55557;49.220;11.150;2023-05-18T12:14:56;6.83;;;1.80;;
68583;SDS011;55557;49.220;11.150;2023-05-18T12:17:23;6.60;;;1.67;;
68583;SDS011;55557;49.220;11.150;2023-05-18T12:19:49;9.13;;;1.87;;
68583;SDS011;55557;49.220;11.150;2023-05-18T12:22:15;8.57;;;2.07;;
68583;SDS011;55557;49.220;11.150;2023-05-18T12:24:41;4.80;;;1.70;;
68583;SDS011;55557;49.220;11.150;2023-05-18T12:27:08;6.57;;;1.93;;
68583;SDS011;55557;49.220;11.150;2023-05-18T12:29:38;4.53;;;1.50;;
68583;SDS011;55557;49.220;11.150;2023-05-18T12:32:08;6.63;;;1.97;;
68583;SDS011;55557;49.220;11.150;2023-05-18T12:34:37;5.47;;;1.77;;
68583;SDS011;55557;49.220;11.150;2023-05-18T12:37:05;6.23;;;1.60;;
68583;SDS011;55557;49.220;11.150;2023-05-18T12:39:32;5.60;;;1.73;;
68583;SDS011;55557;49.220;11.150;2023-05-18T12:42:08;9.07;;;1.57;;
68583;SDS011;55557;49.220;11.150;2023-05-18T12:44:35;6.90;;;2.13;;
68583;SDS011;55557;49.220;11.150;2023-05-18T12:47:01;5.93;;;2.57;;
68583;SDS011;55557;49.220;11.150;2023-05-18T12:49:27;5.27;;;1.53;;
68583;SDS011;55557;49.220;11.150;2023-05-18T12:51:54;6.97;;;1.80;;
68583;SDS011;55557;49.220;11.150;2023-05-18T12:54:29;3.30;;;1.70;;
68583;SDS011;55557;49.220;11.150;2023-05-18T12:56:55;8.13;;;1.73;;
68583;SDS011;55557;49.220;11.150;2023-05-18T12:59:24;7.17;;;1.90;;
68583;SDS011;55557;49.220;11.150;2023-05-18T13:01:51;5.73;;;2.10;;
68583;SDS011;55557;49.220;11.150;2023-05-18T13:04:18;7.00;;;2.03;;
68583;SDS011;55557;49.220;11.150;2023-05-18T13:06:44;7.50;;;1.47;;
68583;SDS011;55557;49.220;11.150;2023-05-18T13:09:13;9.60;;;1.77;;
68583;SDS011;55557;49.220;11.150;2023-05-18T13:11:39;6.37;;;1.60;;
68583;SDS011;55557;49.220;11.150;2023-05-18T13:14:06;5.43;;;2.17;;
68583;SDS011;55557;49.220;11.150;2023-05-18T13:16:36;4.90;;;1.80;;
68583;SDS011;55557;49.220;11.150;2023-05-18T13:19:07;4.20;;;1.90;;
68583;SDS011;55557;49.220;11.150;2023-05-18T13:21:34;4.90;;;1.90;;
68583;SDS011;55557;49.220;11.150;2023-05-18T13:24:03;7.00;;;1.83;;
68583;SDS011;55557;49.220;11.150;2023-05-18T13:26:31;4.93;;;1.87;;
68583;SDS011;55557;49.220;11.150;2023-05-18T13:28:57;4.43;;;1.80;;
68583;SDS011;55557;49.220;11.150;2023-05-18T13:31:24;8.10;;;2.23;;
68583;SDS011;55557;49.220;11.150;2023-05-18T13:33:50;7.00;;;1.80;;
68583;SDS011;55557;49.220;11.150;2023-05-18T13:36:16;3.43;;;1.50;;
68583;SDS011;55557;49.220;11.150;2023-05-18T13:38:43;3.23;;;1.40;;
68583;SDS011;55557;49.220;11.150;2023-05-18T13:41:09;6.47;;;1.40;;
68583;SDS011;55557;49.220;11.150;2023-05-18T13:43:36;1.97;;;1.17;;
68583;SDS011;55557;49.220;11.150;2023-05-18T13:46:02;9.30;;;1.80;;
68583;SDS011;55557;49.220;11.150;2023-05-18T13:48:28;5.90;;;1.60;;
68583;SDS011;55557;49.220;11.150;2023-05-18T13:50:55;4.07;;;2.00;;
68583;SDS011;55557;49.220;11.150;2023-05-18T13:53:21;8.20;;;1.60;;
68583;SDS011;55557;49.220;11.150;2023-05-18T13:55:47;3.13;;;1.43;;
68583;SDS011;55557;49.220;11.150;2023-05-18T13:58:14;7.77;;;1.87;;
68583;SDS011;55557;49.220;11.150;2023-05-18T14:00:40;6.67;;;1.73;;
68583;SDS011;55557;49.220;11.150;2023-05-18T14:03:06;4.87;;;1.53;;
68583;SDS011;55557;49.220;11.150;2023-05-18T14:05:32;7.97;;;1.97;;
68583;SDS011;55557;49.220;11.150;2023-05-18T14:07:58;4.97;;;1.30;;
68583;SDS011;55557;49.220;11.150;2023-05-18T14:10:25;5.20;;;1.70;;
68583;SDS011;55557;49.220;11.150;2023-05-18T14:12:51;3.20;;;1.43;;
68583;SDS011;55557;49.220;11.150;2023-05-18T14:15:17;3.77;;;1.63;;
68583;SDS011;55557;49.220;11.150;2023-05-18T14:17:43;5.13;;;1.77;;
68583;SDS011;55557;49.220;11.150;2023-05-18T14:20:09;3.97;;;1.80;;
68583;SDS011;55557;49.220;11.150;2023-05-18T14:22:36;4.07;;;1.57;;
68583;SDS011;55557;49.220;11.150;2023-05-18T14:25:02;7.40;;;1.90;;
68583;SDS011;55557;49.220;11.150;2023-05-18T14:27:28;7.17;;;2.03;;
68583;SDS011;55557;49.220;11.150;2023-05-18T14:29:54;6.53;;;1.67;;
68583;SDS011;55557;49.220;11.150;2023-05-18T14:35:11;5.13;;;1.93;;
68583;SDS011;55557;49.220;11.150;2023-05-18T14:37:37;4.40;;;1.60;;
68583;SDS011;55557;49.220;11.150;2023-05-18T14:40:03;6.33;;;1.80;;
68583;SDS011;55557;49.220;11.150;2023-05-18T14:42:30;3.80;;;1.40;;
68583;SDS011;55557;49.220;11.150;2023-05-18T14:44:56;4.27;;;1.70;;
68583;SDS011;55557;49.220;11.150;2023-05-18T14:47:21;3.03;;;1.57;;
68583;SDS011;55557;49.220;11.150;2023-05-18T14:49:47;3.10;;;1.23;;
68583;SDS011;55557;49.220;11.150;2023-05-18T14:52:14;9.23;;;1.73;;
68583;SDS011;55557;49.220;11.150;2023-05-18T14:54:40;4.20;;;1.43;;